createdAt,value
2018-07-22T00:00:18.222Z,20.28
2018-07-22T00:02:46.451Z,20.04
2018-07-22T00:05:15.551Z,20.09
2018-07-22T00:07:44.419Z,19.89
2018-07-22T00:10:21.365Z,19.93
2018-07-22T00:12:49.605Z,20.19
2018-07-22T00:15:18.387Z,20.24
2018-07-22T00:17:46.627Z,20.02
2018-07-22T00:20:15.354Z,20.14
2018-07-22T00:22:43.609Z,20.02
2018-07-22T00:25:11.855Z,19.91
2018-07-22T00:27:40.123Z,20.01
2018-07-22T00:30:09.362Z,20.02
2018-07-22T00:32:38.550Z,19.85
2018-07-22T00:35:06.785Z,19.76
2018-07-22T00:37:34.974Z,19.71
2018-07-22T00:40:03.472Z,19.80
2018-07-22T00:42:31.726Z,19.74
2018-07-22T00:45:00.002Z,19.68
2018-07-22T00:47:28.318Z,19.62
2018-07-22T00:49:57.032Z,19.91
2018-07-22T00:52:25.357Z,19.92
2018-07-22T00:54:53.569Z,19.98
2018-07-22T00:57:21.767Z,19.81
2018-07-22T00:59:49.958Z,20.02
2018-07-22T01:02:18.150Z,19.98
2018-07-22T01:04:46.345Z,20.07
2018-07-22T01:07:21.301Z,20.17
2018-07-22T01:09:49.489Z,20.07
2018-07-22T01:12:17.748Z,20.17
2018-07-22T01:14:45.948Z,20.20
2018-07-22T01:17:14.254Z,20.08
2018-07-22T01:19:42.467Z,19.94
2018-07-22T01:22:10.713Z,19.86
2018-07-22T01:24:38.970Z,19.93
2018-07-22T01:27:07.178Z,20.10
2018-07-22T01:29:35.353Z,19.99
2018-07-22T01:32:03.540Z,19.58
2018-07-22T01:34:31.746Z,19.85
2018-07-22T01:36:59.966Z,19.96
2018-07-22T01:39:28.522Z,19.88
2018-07-22T01:41:56.718Z,19.83
2018-07-22T01:44:24.974Z,19.89
2018-07-22T01:46:53.186Z,19.90
2018-07-22T01:49:21.370Z,19.67
2018-07-22T01:51:49.554Z,19.62
2018-07-22T01:54:17.829Z,19.74
2018-07-22T01:56:46.133Z,19.65
2018-07-22T01:59:14.412Z,19.70
2018-07-22T02:01:42.665Z,19.36
2018-07-22T02:04:10.801Z,19.63
2018-07-22T02:06:38.991Z,19.37
2018-07-22T02:09:08.508Z,19.32
2018-07-22T02:11:36.677Z,19.58
2018-07-22T02:14:04.859Z,19.75
2018-07-22T02:16:33.087Z,19.45
2018-07-22T02:19:01.341Z,19.55
2018-07-22T02:21:29.883Z,19.39
2018-07-22T02:23:58.421Z,19.48
2018-07-22T02:26:26.734Z,19.57
2018-07-22T02:28:54.906Z,19.49
2018-07-22T02:31:23.223Z,19.59
2018-07-22T02:33:51.403Z,19.61
2018-07-22T02:36:19.623Z,19.32
2018-07-22T02:38:47.881Z,19.56
2018-07-22T02:41:16.369Z,19.52
2018-07-22T02:43:44.622Z,19.77
2018-07-22T02:46:12.935Z,19.69
2018-07-22T02:48:41.178Z,19.48
2018-07-22T02:51:09.473Z,19.58
2018-07-22T02:53:37.670Z,19.36
2018-07-22T02:56:05.846Z,19.50
2018-07-22T02:58:34.018Z,19.26
2018-07-22T03:01:02.202Z,19.38
2018-07-22T03:03:30.426Z,19.15
2018-07-22T03:05:58.569Z,19.45
2018-07-22T03:08:26.841Z,19.52
2018-07-22T03:10:55.669Z,19.48
2018-07-22T03:13:23.837Z,19.38
2018-07-22T03:15:52.437Z,19.33
2018-07-22T03:18:20.645Z,19.33
2018-07-22T03:20:48.844Z,19.27
2018-07-22T03:23:17.031Z,19.27
2018-07-22T03:25:45.210Z,19.32
2018-07-22T03:28:13.384Z,19.37
2018-07-22T03:30:41.581Z,19.32
2018-07-22T03:33:09.876Z,19.26
2018-07-22T03:35:38.065Z,19.19
2018-07-22T03:38:06.297Z,19.33
2018-07-22T03:40:34.481Z,19.14
2018-07-22T03:43:03.057Z,19.36
2018-07-22T03:45:31.248Z,19.35
2018-07-22T03:47:59.762Z,19.48
2018-07-22T03:50:28.613Z,19.53
2018-07-22T03:52:56.828Z,19.41
2018-07-22T03:55:25.124Z,19.48
2018-07-22T03:57:53.352Z,19.33
2018-07-22T04:00:21.534Z,19.41
2018-07-22T04:02:49.698Z,19.54
2018-07-22T04:05:17.950Z,19.63
2018-07-22T04:07:46.238Z,19.68
2018-07-22T04:10:14.423Z,19.55
2018-07-22T04:12:42.590Z,19.76
2018-07-22T04:15:10.878Z,19.44
2018-07-22T04:17:39.533Z,19.93
2018-07-22T04:20:08.273Z,20.00
2018-07-22T04:22:36.816Z,19.88
2018-07-22T04:25:05.141Z,19.88
2018-07-22T04:27:33.302Z,19.82
2018-07-22T04:30:01.493Z,19.63
2018-07-22T04:32:30.237Z,20.12
2018-07-22T04:34:58.489Z,20.15
2018-07-22T04:37:26.677Z,20.30
2018-07-22T04:39:54.869Z,20.22
2018-07-22T04:42:23.045Z,20.23
2018-07-22T04:44:51.307Z,20.12
2018-07-22T04:47:19.554Z,20.37
2018-07-22T04:49:48.729Z,20.33
2018-07-22T04:52:17.057Z,20.42
2018-07-22T04:54:45.263Z,20.41
2018-07-22T04:57:13.454Z,20.55
2018-07-22T04:59:41.634Z,20.69
2018-07-22T05:02:10.444Z,20.61
2018-07-22T05:04:39.030Z,20.59
2018-07-22T05:07:07.221Z,20.78
2018-07-22T05:09:35.388Z,20.79
2018-07-22T05:12:03.591Z,20.61
2018-07-22T05:14:31.890Z,20.65
2018-07-22T05:17:00.113Z,20.33
2018-07-22T05:19:28.289Z,20.60
2018-07-22T05:21:56.491Z,20.42
2018-07-22T05:24:24.685Z,20.33
2018-07-22T05:26:52.881Z,20.30
2018-07-22T05:29:21.430Z,20.38
2018-07-22T05:31:49.669Z,20.22
2018-07-22T05:34:17.933Z,20.07
2018-07-22T05:36:46.109Z,20.28
2018-07-22T05:39:14.591Z,20.43
2018-07-22T05:41:42.973Z,20.25
2018-07-22T05:44:11.169Z,20.66
2018-07-22T05:46:39.381Z,20.77
2018-07-22T05:49:07.561Z,20.63
2018-07-22T05:51:35.880Z,20.53
2018-07-22T05:54:04.252Z,20.84
2018-07-22T05:56:32.657Z,20.73
2018-07-22T05:59:00.931Z,20.79
2018-07-22T06:01:29.153Z,20.79
2018-07-22T06:03:57.352Z,20.61
2018-07-22T06:06:25.542Z,20.85
2018-07-22T06:08:53.804Z,20.75
2018-07-22T06:11:22.278Z,20.81
2018-07-22T06:13:51.046Z,20.21
2018-07-22T06:16:19.510Z,20.55
2018-07-22T06:18:47.702Z,20.32
2018-07-22T06:21:16.809Z,20.61
2018-07-22T06:23:44.994Z,20.65
2018-07-22T06:26:13.180Z,20.78
2018-07-22T06:28:41.737Z,20.72
2018-07-22T06:31:09.944Z,20.47
2018-07-22T06:33:38.266Z,20.06
2018-07-22T06:36:06.462Z,20.24
2018-07-22T06:38:34.638Z,20.85
2018-07-22T06:41:02.981Z,20.82
2018-07-22T06:43:31.137Z,20.92
2018-07-22T06:45:59.341Z,20.51
2018-07-22T06:48:27.507Z,20.73
2018-07-22T06:50:55.705Z,20.62
2018-07-22T06:53:23.949Z,20.76
2018-07-22T06:55:52.241Z,20.84
2018-07-22T06:58:20.536Z,20.65
2018-07-22T07:00:48.752Z,20.93
2018-07-22T07:03:16.941Z,21.20
2018-07-22T07:05:45.157Z,20.97
2018-07-22T07:08:13.359Z,21.18
2018-07-22T07:10:41.541Z,21.30
2018-07-22T07:13:09.728Z,20.97
2018-07-22T07:15:38.004Z,21.23
2018-07-22T07:18:06.410Z,21.03
2018-07-22T07:20:36.810Z,21.24
2018-07-22T07:23:05.828Z,20.54
2018-07-22T07:25:34.087Z,20.79
2018-07-22T07:28:03.795Z,21.52
2018-07-22T07:30:32.224Z,21.73
2018-07-22T07:33:00.605Z,21.39
2018-07-22T07:35:29.090Z,21.44
2018-07-22T07:37:57.514Z,20.98
2018-07-22T07:40:25.832Z,21.03
2018-07-22T07:42:54.032Z,21.27
2018-07-22T07:45:22.217Z,21.10
2018-07-22T07:47:50.413Z,21.52
2018-07-22T07:50:18.605Z,21.62
2018-07-22T07:52:46.861Z,21.78
2018-07-22T07:55:15.153Z,21.90
2018-07-22T07:57:43.339Z,21.97
2018-07-22T08:00:11.532Z,21.66
2018-07-22T08:02:39.821Z,22.05
2018-07-22T08:05:08.107Z,21.57
2018-07-22T08:07:36.336Z,22.28
2018-07-22T08:10:05.582Z,22.18
2018-07-22T08:12:33.830Z,22.73
2018-07-22T08:15:02.045Z,22.96
2018-07-22T08:17:30.304Z,22.73
2018-07-22T08:19:58.488Z,22.50
2018-07-22T08:22:26.666Z,23.61
2018-07-22T08:24:54.858Z,24.06
2018-07-22T08:27:23.063Z,23.33
2018-07-22T08:29:51.326Z,23.94
2018-07-22T08:32:19.509Z,23.87
2018-07-22T08:34:47.706Z,23.93
2018-07-22T08:37:15.886Z,23.19
2018-07-22T08:39:44.086Z,23.19
2018-07-22T08:42:12.298Z,22.84
2018-07-22T08:44:40.553Z,23.45
2018-07-22T08:47:08.766Z,23.68
2018-07-22T08:49:37.251Z,23.70
2018-07-22T08:52:05.613Z,23.50
2018-07-22T08:54:33.811Z,23.39
2018-07-22T08:57:01.986Z,22.84
2018-07-22T08:59:30.179Z,24.15
2018-07-22T09:01:58.373Z,24.23
2018-07-22T09:04:26.753Z,24.88
2018-07-22T09:06:55.227Z,24.67
2018-07-22T09:09:23.845Z,24.09
2018-07-22T09:11:52.207Z,24.10
2018-07-22T09:14:20.381Z,24.05
2018-07-22T09:16:49.029Z,24.83
2018-07-22T09:19:17.329Z,24.60
2018-07-22T09:21:45.928Z,24.71
2018-07-22T09:24:14.525Z,24.51
2018-07-22T09:26:42.758Z,24.66
2018-07-22T09:29:11.015Z,24.45
2018-07-22T09:31:39.270Z,24.15
2018-07-22T09:34:07.539Z,24.02
2018-07-22T09:36:35.794Z,24.34
2018-07-22T09:39:06.039Z,23.94
2018-07-22T09:41:34.231Z,24.60
2018-07-22T09:44:02.426Z,24.51
2018-07-22T09:46:30.698Z,24.92
2018-07-22T09:48:58.916Z,25.11
2018-07-22T09:51:27.183Z,24.69
2018-07-22T09:53:55.378Z,24.10
2018-07-22T09:56:23.560Z,24.55
2018-07-22T09:58:51.730Z,23.69
2018-07-22T10:01:19.961Z,24.22
2018-07-22T10:03:48.188Z,23.76
2018-07-22T10:06:16.414Z,24.57
2018-07-22T10:08:44.711Z,24.16
2018-07-22T10:11:13.024Z,24.38
2018-07-22T10:13:41.161Z,24.80
2018-07-22T10:16:09.417Z,25.38
2018-07-22T10:18:37.742Z,25.17
2018-07-22T10:21:06.051Z,25.41
2018-07-22T10:23:34.397Z,24.88
2018-07-22T10:26:02.644Z,23.20
2018-07-22T10:28:30.808Z,24.69
2018-07-22T10:30:58.987Z,24.34
2018-07-22T10:33:27.182Z,24.64
2018-07-22T10:35:55.396Z,25.31
2018-07-22T10:38:23.518Z,24.36
2018-07-22T10:40:51.781Z,24.11
2018-07-22T10:43:19.936Z,23.78
2018-07-22T10:45:48.170Z,22.71
2018-07-22T10:48:16.361Z,23.43
2018-07-22T10:50:44.543Z,24.65
2018-07-22T10:53:12.771Z,25.20
2018-07-22T10:55:40.934Z,24.10
2018-07-22T10:58:09.150Z,22.26
2018-07-22T11:00:37.333Z,23.98
2018-07-22T11:03:06.422Z,24.51
2018-07-22T11:05:34.679Z,23.52
2018-07-22T11:08:02.833Z,24.68
2018-07-22T11:10:31.028Z,24.91
2018-07-22T11:12:59.193Z,23.27
2018-07-22T11:15:27.401Z,24.54
2018-07-22T11:17:55.607Z,24.05
2018-07-22T11:20:23.822Z,24.38
2018-07-22T11:22:51.972Z,23.52
2018-07-22T11:25:20.214Z,23.88
2018-07-22T11:27:48.450Z,24.12
2018-07-22T11:30:16.708Z,24.19
2018-07-22T11:32:44.970Z,24.10
2018-07-22T11:35:13.240Z,23.30
2018-07-22T11:37:41.452Z,23.36
2018-07-22T11:40:10.546Z,25.05
2018-07-22T11:42:38.826Z,25.30
2018-07-22T11:45:07.046Z,25.55
2018-07-22T11:47:35.425Z,25.26
2018-07-22T11:50:05.384Z,25.78
2018-07-22T11:52:33.597Z,25.74
2018-07-22T11:55:01.836Z,25.57
2018-07-22T11:57:30.016Z,26.50
2018-07-22T11:59:58.217Z,26.18
2018-07-22T12:02:26.455Z,25.56
2018-07-22T12:04:54.713Z,26.35
2018-07-22T12:07:22.964Z,26.23
2018-07-22T12:09:51.167Z,26.54
2018-07-22T12:12:19.397Z,27.27
2018-07-22T12:14:47.552Z,27.18
2018-07-22T12:17:15.772Z,27.95
2018-07-22T12:19:43.970Z,27.04
2018-07-22T12:22:12.182Z,27.56
2018-07-22T12:24:40.418Z,27.47
2018-07-22T12:27:09.002Z,27.15
2018-07-22T12:29:37.210Z,27.29
2018-07-22T12:32:05.446Z,27.38
2018-07-22T12:34:33.734Z,26.64
2018-07-22T12:37:01.906Z,27.32
2018-07-22T12:39:30.114Z,27.11
2018-07-22T12:41:58.413Z,27.75
2018-07-22T12:44:26.646Z,27.51
2018-07-22T12:46:54.945Z,26.89
2018-07-22T12:49:23.176Z,25.12
2018-07-22T12:51:51.417Z,24.81
2018-07-22T12:54:19.631Z,25.01
2018-07-22T12:56:47.845Z,26.73
2018-07-22T12:59:16.158Z,27.07
2018-07-22T13:01:44.437Z,26.87
2018-07-22T13:04:12.648Z,28.36
2018-07-22T13:06:40.935Z,28.22
2018-07-22T13:09:10.338Z,26.93
2018-07-22T13:11:38.565Z,28.94
2018-07-22T13:14:07.120Z,32.92
2018-07-22T13:16:35.353Z,34.59
2018-07-22T13:19:03.846Z,35.72
2018-07-22T13:21:32.239Z,36.84
2018-07-22T13:24:00.589Z,37.79
2018-07-22T13:26:28.864Z,35.88
2018-07-22T13:28:57.079Z,36.86
2018-07-22T13:31:25.520Z,36.11
2018-07-22T13:33:53.782Z,34.38
2018-07-22T13:36:22.003Z,35.52
2018-07-22T13:38:50.244Z,32.77
2018-07-22T13:41:18.891Z,31.74
2018-07-22T13:43:47.143Z,31.15
2018-07-22T13:46:15.386Z,30.70
2018-07-22T13:48:43.612Z,28.66
2018-07-22T13:51:11.830Z,30.06
2018-07-22T13:53:40.066Z,31.15
2018-07-22T13:56:08.456Z,30.65
2018-07-22T13:58:36.760Z,30.03
2018-07-22T14:01:05.742Z,30.90
2018-07-22T14:03:34.850Z,32.26
2018-07-22T14:06:03.124Z,32.46
2018-07-22T14:08:31.391Z,35.16
2018-07-22T14:10:59.640Z,39.93
2018-07-22T14:13:27.925Z,39.33
2018-07-22T14:15:56.151Z,40.73
2018-07-22T14:18:24.358Z,41.07
2018-07-22T14:20:52.579Z,41.31
2018-07-22T14:23:20.857Z,35.98
2018-07-22T14:25:49.051Z,35.20
2018-07-22T14:28:17.773Z,37.31
2018-07-22T14:30:46.059Z,32.26
2018-07-22T14:33:14.231Z,38.90
2018-07-22T14:35:42.424Z,37.74
2018-07-22T14:38:10.701Z,39.62
2018-07-22T14:40:38.958Z,41.47
2018-07-22T14:43:07.498Z,40.61
2018-07-22T14:45:35.854Z,39.91
2018-07-22T14:48:04.080Z,39.76
2018-07-22T14:50:32.481Z,41.55
2018-07-22T14:53:00.968Z,35.18
2018-07-22T14:55:29.532Z,38.22
2018-07-22T14:57:57.794Z,35.11
2018-07-22T15:00:26.092Z,38.70
2018-07-22T15:02:54.293Z,40.64
2018-07-22T15:05:22.587Z,36.01
2018-07-22T15:07:50.800Z,35.93
2018-07-22T15:10:19.011Z,34.29
2018-07-22T15:12:47.293Z,32.55
2018-07-22T15:15:15.487Z,33.45
2018-07-22T15:17:43.697Z,32.34
2018-07-22T15:20:11.895Z,33.55
2018-07-22T15:22:40.105Z,34.13
2018-07-22T15:25:08.742Z,29.63
2018-07-22T15:27:37.068Z,33.33
2018-07-22T15:30:05.742Z,31.32
2018-07-22T15:32:33.925Z,33.04
2018-07-22T15:35:02.197Z,30.15
2018-07-22T15:37:30.388Z,29.50
2018-07-22T15:39:58.582Z,27.58
2018-07-22T15:42:26.759Z,30.70
2018-07-22T15:44:55.307Z,30.12
2018-07-22T15:47:23.490Z,29.27
2018-07-22T15:49:51.792Z,29.76
2018-07-22T15:52:20.056Z,28.72
2018-07-22T15:54:48.286Z,29.50
2018-07-22T15:57:16.465Z,29.68
2018-07-22T15:59:44.658Z,28.92
2018-07-22T16:02:13.242Z,28.11
2018-07-22T16:04:41.600Z,26.74
2018-07-22T16:07:10.009Z,28.55
2018-07-22T16:09:38.420Z,27.67
2018-07-22T16:12:06.646Z,27.42
2018-07-22T16:14:34.981Z,27.36
2018-07-22T16:17:03.237Z,28.26
2018-07-22T16:19:32.826Z,28.23
2018-07-22T16:22:02.090Z,28.20
2018-07-22T16:24:30.646Z,27.92
2018-07-22T16:26:59.259Z,28.16
2018-07-22T16:29:27.645Z,27.95
2018-07-22T16:31:56.546Z,27.50
2018-07-22T16:34:24.984Z,27.18
2018-07-22T16:36:53.190Z,26.83
2018-07-22T16:39:21.942Z,27.78
2018-07-22T16:41:50.154Z,27.37
2018-07-22T16:44:20.658Z,28.10
2018-07-22T16:46:48.847Z,27.34
2018-07-22T16:49:17.168Z,27.89
2018-07-22T16:51:46.085Z,27.23
2018-07-22T16:54:14.317Z,27.40
2018-07-22T16:56:42.490Z,27.18
2018-07-22T16:59:10.700Z,26.85
2018-07-22T17:01:38.901Z,26.56
2018-07-22T17:04:07.064Z,26.54
2018-07-22T17:06:35.293Z,26.80
2018-07-22T17:09:03.541Z,26.58
2018-07-22T17:11:31.785Z,26.56
2018-07-22T17:13:59.982Z,26.36
2018-07-22T17:16:28.190Z,26.76
2018-07-22T17:18:56.360Z,26.55
2018-07-22T17:21:24.560Z,26.20
2018-07-22T17:23:52.748Z,26.00
2018-07-22T17:26:20.918Z,26.26
2018-07-22T17:28:49.157Z,26.41
2018-07-22T17:31:17.429Z,25.83
2018-07-22T17:33:45.585Z,26.19
2018-07-22T17:36:13.837Z,25.84
2018-07-22T17:38:42.006Z,25.65
2018-07-22T17:41:10.182Z,25.68
2018-07-22T17:43:38.374Z,25.19
2018-07-22T17:46:06.620Z,25.38
2018-07-22T17:48:34.875Z,25.46
2018-07-22T17:51:03.095Z,25.25
2018-07-22T17:53:31.252Z,25.02
2018-07-22T17:55:59.449Z,24.96
2018-07-22T17:58:27.639Z,24.74
2018-07-22T18:00:55.805Z,24.50
2018-07-22T18:03:26.803Z,24.77
2018-07-22T18:05:55.037Z,24.82
2018-07-22T18:08:23.281Z,24.99
2018-07-22T18:10:52.514Z,24.69
2018-07-22T18:13:20.714Z,24.65
2018-07-22T18:15:48.886Z,24.43
2018-07-22T18:18:17.578Z,24.39
2018-07-22T18:20:46.830Z,24.62
2018-07-22T18:23:15.098Z,24.42
2018-07-22T18:25:44.289Z,24.34
2018-07-22T18:28:12.990Z,24.04
2018-07-22T18:30:41.236Z,23.97
2018-07-22T18:33:09.427Z,23.96
2018-07-22T18:35:38.374Z,24.13
2018-07-22T18:38:06.593Z,23.91
2018-07-22T18:40:35.856Z,24.00
2018-07-22T18:43:04.051Z,23.93
2018-07-22T18:45:33.685Z,23.54
2018-07-22T18:48:03.266Z,23.81
2018-07-22T18:50:31.913Z,23.75
2018-07-22T18:53:00.191Z,23.65
2018-07-22T18:55:28.579Z,23.41
2018-07-22T18:57:57.892Z,23.54
2018-07-22T19:00:27.143Z,23.06
2018-07-22T19:02:55.557Z,23.35
2018-07-22T19:05:24.181Z,23.07
2018-07-22T19:07:52.390Z,23.20
2018-07-22T19:10:20.924Z,23.19
2018-07-22T19:12:49.148Z,23.11
2018-07-22T19:15:17.436Z,23.33
2018-07-22T19:17:45.804Z,23.23
2018-07-22T19:20:14.071Z,22.99
2018-07-22T19:22:42.546Z,23.08
2018-07-22T19:25:10.834Z,23.00
2018-07-22T19:27:39.230Z,23.17
2018-07-22T19:30:07.794Z,23.11
2018-07-22T19:32:36.408Z,23.15
2018-07-22T19:35:05.026Z,23.15
2018-07-22T19:37:33.234Z,22.92
2018-07-22T19:40:01.646Z,22.85
2018-07-22T19:42:29.884Z,22.78
2018-07-22T19:44:58.153Z,22.74
2018-07-22T19:47:26.436Z,22.91
2018-07-22T19:49:54.645Z,22.85
2018-07-22T19:52:22.925Z,22.87
2018-07-22T19:54:51.193Z,22.84
2018-07-22T19:57:19.793Z,22.97
2018-07-22T19:59:48.427Z,22.88
2018-07-22T20:02:16.617Z,22.73
2018-07-22T20:04:45.967Z,22.85
2018-07-22T20:07:14.477Z,22.73
2018-07-22T20:09:43.315Z,22.76
2018-07-22T20:12:12.415Z,22.74
2018-07-22T20:14:40.617Z,22.55
2018-07-22T20:17:08.817Z,22.30
2018-07-22T20:19:37.040Z,22.39
2018-07-22T20:22:05.282Z,22.50
2018-07-22T20:24:33.465Z,22.41
2018-07-22T20:27:01.678Z,22.50
2018-07-22T20:29:29.894Z,22.16
2018-07-22T20:31:58.240Z,22.46
2018-07-22T20:34:26.500Z,22.27
2018-07-22T20:36:54.687Z,22.15
2018-07-22T20:39:22.972Z,21.87
2018-07-22T20:41:51.368Z,22.20
2018-07-22T20:44:19.632Z,22.34
2018-07-22T20:46:47.875Z,21.98
2018-07-22T20:49:16.072Z,22.07
2018-07-22T20:51:44.256Z,21.91
2018-07-22T20:54:12.512Z,21.95
2018-07-22T20:56:40.728Z,21.73
2018-07-22T20:59:08.888Z,21.75
2018-07-22T21:01:37.496Z,22.01
2018-07-22T21:04:06.326Z,22.07
2018-07-22T21:06:34.894Z,21.62
2018-07-22T21:09:03.142Z,22.04
2018-07-22T21:11:43.192Z,21.69
2018-07-22T21:14:11.366Z,21.90
2018-07-22T21:16:39.549Z,21.84
2018-07-22T21:19:07.742Z,21.73
2018-07-22T21:21:35.996Z,21.66
2018-07-22T21:24:04.173Z,21.88
2018-07-22T21:26:32.369Z,21.90
2018-07-22T21:29:00.562Z,21.69
2018-07-22T21:31:28.745Z,21.56
2018-07-22T21:33:56.966Z,21.82
2018-07-22T21:36:25.124Z,21.44
2018-07-22T21:38:53.421Z,21.58
2018-07-22T21:41:21.589Z,21.75
2018-07-22T21:43:49.764Z,21.60
2018-07-22T21:46:17.957Z,21.49
2018-07-22T21:48:46.151Z,21.53
2018-07-22T21:51:14.376Z,21.43
2018-07-22T21:53:42.549Z,21.43
2018-07-22T21:56:10.963Z,21.39
2018-07-22T21:58:39.216Z,21.32
2018-07-22T22:01:07.724Z,21.44
2018-07-22T22:03:36.344Z,21.19
2018-07-22T22:06:04.519Z,21.27
2018-07-22T22:08:32.685Z,21.31
2018-07-22T22:11:00.877Z,21.20
2018-07-22T22:13:29.092Z,21.15
2018-07-22T22:15:57.269Z,21.25
2018-07-22T22:18:25.546Z,21.25
2018-07-22T22:20:53.726Z,21.36
2018-07-22T22:23:21.985Z,21.23
2018-07-22T22:25:50.177Z,20.97
2018-07-22T22:28:18.361Z,20.78
2018-07-22T22:30:46.603Z,20.60
2018-07-22T22:33:14.797Z,20.40
2018-07-22T22:35:42.989Z,20.53
2018-07-22T22:38:11.193Z,20.34
2018-07-22T22:40:39.409Z,20.34
2018-07-22T22:43:07.597Z,20.27
2018-07-22T22:45:35.773Z,19.82
2018-07-22T22:48:03.971Z,20.25
2018-07-22T22:50:32.193Z,20.26
2018-07-22T22:53:00.425Z,20.26
2018-07-22T22:55:28.618Z,20.11
2018-07-22T22:58:08.309Z,20.20
2018-07-22T23:00:36.582Z,19.86
2018-07-22T23:03:04.856Z,20.19
2018-07-22T23:05:33.108Z,20.00
2018-07-22T23:08:01.304Z,20.02
2018-07-22T23:10:29.494Z,19.95
2018-07-22T23:12:57.700Z,20.02
2018-07-22T23:15:25.886Z,20.04
2018-07-22T23:17:54.062Z,20.02
2018-07-22T23:20:22.258Z,19.94
2018-07-22T23:22:50.470Z,19.91
2018-07-22T23:25:18.633Z,19.89
2018-07-22T23:27:46.801Z,20.01
2018-07-22T23:30:14.994Z,19.88
2018-07-22T23:32:43.233Z,19.93
2018-07-22T23:35:11.417Z,19.96
2018-07-22T23:37:39.617Z,19.99
2018-07-22T23:40:07.793Z,19.96
2018-07-22T23:42:36.037Z,19.93
2018-07-22T23:45:04.257Z,19.80
2018-07-22T23:47:32.429Z,20.01
2018-07-22T23:50:02.805Z,20.09
2018-07-22T23:52:30.978Z,20.14
2018-07-22T23:54:59.157Z,20.01
2018-07-22T23:57:27.328Z,20.18
2018-07-22T23:59:55.532Z,20.05
